sensor_id;sensor_type;location;lat;lon;timestamp;P1;durP1;ratioP1;P2;durP2;ratioP2
55007;SDS011;40902;45.116;21.296;2023-12-20T00:01:00;11.48;;;6.68;;
55007;SDS011;40902;45.116;21.296;2023-12-20T00:03:26;10.02;;;6.65;;
55007;SDS011;40902;45.116;21.296;2023-12-20T00:05:52;12.55;;;7.35;;
55007;SDS011;40902;45.116;21.296;2023-12-20T00:08:18;11.07;;;6.68;;
55007;SDS011;40902;45.116;21.296;2023-12-20T00:10:44;11.13;;;6.97;;
55007;SDS011;40902;45.116;21.296;2023-12-20T00:13:10;15.18;;;9.30;;
55007;SDS011;40902;45.116;21.296;2023-12-20T00:15:36;13.60;;;9.20;;
55007;SDS011;40902;45.116;21.296;2023-12-20T00:18:02;20.88;;;14.10;;
55007;SDS011;40902;45.116;21.296;2023-12-20T00:20:28;21.05;;;13.85;;
55007;SDS011;40902;45.116;21.296;2023-12-20T00:22:55;23.27;;;15.32;;
55007;SDS011;40902;45.116;21.296;2023-12-20T00:25:22;22.15;;;16.02;;
55007;SDS011;40902;45.116;21.296;2023-12-20T00:27:48;28.25;;;19.20;;
55007;SDS011;40902;45.116;21.296;2023-12-20T00:30:14;23.95;;;16.35;;
55007;SDS011;40902;45.116;21.296;2023-12-20T00:32:40;25.92;;;16.70;;
55007;SDS011;40902;45.116;21.296;2023-12-20T00:35:11;23.65;;;16.55;;
55007;SDS011;40902;45.116;21.296;2023-12-20T00:37:38;21.52;;;14.90;;
55007;SDS011;40902;45.116;21.296;2023-12-20T00:40:04;21.45;;;15.60;;
55007;SDS011;40902;45.116;21.296;2023-12-20T00:42:33;23.02;;;15.60;;
55007;SDS011;40902;45.116;21.296;2023-12-20T00:44:59;23.13;;;15.82;;
55007;SDS011;40902;45.116;21.296;2023-12-20T00:47:25;20.33;;;15.48;;
55007;SDS011;40902;45.116;21.296;2023-12-20T00:49:51;26.58;;;17.60;;
55007;SDS011;40902;45.116;21.296;2023-12-20T00:52:17;24.67;;;17.48;;
55007;SDS011;40902;45.116;21.296;2023-12-20T00:54:43;25.58;;;17.15;;
55007;SDS011;40902;45.116;21.296;2023-12-20T00:57:10;25.88;;;16.60;;
55007;SDS011;40902;45.116;21.296;2023-12-20T00:59:35;27.40;;;17.48;;
55007;SDS011;40902;45.116;21.296;2023-12-20T01:02:01;32.63;;;19.42;;
55007;SDS011;40902;45.116;21.296;2023-12-20T01:04:27;40.58;;;23.35;;
55007;SDS011;40902;45.116;21.296;2023-12-20T01:06:53;38.05;;;22.40;;
55007;SDS011;40902;45.116;21.296;2023-12-20T01:09:19;37.20;;;20.80;;
55007;SDS011;40902;45.116;21.296;2023-12-20T01:11:48;32.55;;;20.83;;
55007;SDS011;40902;45.116;21.296;2023-12-20T01:14:14;37.42;;;22.50;;
55007;SDS011;40902;45.116;21.296;2023-12-20T01:16:40;30.80;;;20.08;;
55007;SDS011;40902;45.116;21.296;2023-12-20T01:19:05;32.85;;;19.52;;
55007;SDS011;40902;45.116;21.296;2023-12-20T01:21:31;27.90;;;17.20;;
55007;SDS011;40902;45.116;21.296;2023-12-20T01:23:57;29.25;;;18.90;;
55007;SDS011;40902;45.116;21.296;2023-12-20T01:26:23;22.42;;;14.38;;
55007;SDS011;40902;45.116;21.296;2023-12-20T01:28:49;24.50;;;14.38;;
55007;SDS011;40902;45.116;21.296;2023-12-20T01:31:14;23.52;;;15.25;;
55007;SDS011;40902;45.116;21.296;2023-12-20T01:33:40;22.50;;;14.57;;
55007;SDS011;40902;45.116;21.296;2023-12-20T01:36:06;19.45;;;13.57;;
55007;SDS011;40902;45.116;21.296;2023-12-20T01:38:31;18.83;;;11.90;;
55007;SDS011;40902;45.116;21.296;2023-12-20T01:40:57;21.20;;;13.80;;
55007;SDS011;40902;45.116;21.296;2023-12-20T01:43:24;18.27;;;12.18;;
55007;SDS011;40902;45.116;21.296;2023-12-20T01:45:50;19.27;;;12.85;;
55007;SDS011;40902;45.116;21.296;2023-12-20T01:48:16;19.70;;;12.48;;
55007;SDS011;40902;45.116;21.296;2023-12-20T01:50:43;14.95;;;9.45;;
55007;SDS011;40902;45.116;21.296;2023-12-20T01:53:10;14.10;;;9.77;;
55007;SDS011;40902;45.116;21.296;2023-12-20T01:55:39;14.48;;;9.15;;
55007;SDS011;40902;45.116;21.296;2023-12-20T01:58:08;7.55;;;5.78;;
55007;SDS011;40902;45.116;21.296;2023-12-20T02:00:35;12.40;;;7.07;;
55007;SDS011;40902;45.116;21.296;2023-12-20T02:03:02;10.75;;;7.07;;
55007;SDS011;40902;45.116;21.296;2023-12-20T02:05:29;10.95;;;7.75;;
55007;SDS011;40902;45.116;21.296;2023-12-20T02:07:55;15.30;;;9.30;;
55007;SDS011;40902;45.116;21.296;2023-12-20T02:10:21;10.77;;;6.95;;
55007;SDS011;40902;45.116;21.296;2023-12-20T02:12:47;14.23;;;8.25;;
55007;SDS011;40902;45.116;21.296;2023-12-20T02:15:13;13.23;;;7.72;;
55007;SDS011;40902;45.116;21.296;2023-12-20T02:17:40;10.80;;;6.68;;
55007;SDS011;40902;45.116;21.296;2023-12-20T02:20:06;10.70;;;6.72;;
55007;SDS011;40902;45.116;21.296;2023-12-20T02:22:32;16.35;;;9.10;;
55007;SDS011;40902;45.116;21.296;2023-12-20T02:24:58;16.20;;;9.45;;
55007;SDS011;40902;45.116;21.296;2023-12-20T02:27:23;21.30;;;11.95;;
55007;SDS011;40902;45.116;21.296;2023-12-20T02:29:49;12.18;;;8.07;;
55007;SDS011;40902;45.116;21.296;2023-12-20T02:32:16;11.93;;;7.30;;
55007;SDS011;40902;45.116;21.296;2023-12-20T02:34:43;11.60;;;7.15;;
55007;SDS011;40902;45.116;21.296;2023-12-20T02:37:09;12.73;;;7.68;;
55007;SDS011;40902;45.116;21.296;2023-12-20T02:39:34;11.07;;;7.00;;
55007;SDS011;40902;45.116;21.296;2023-12-20T02:42:00;9.25;;;6.10;;
55007;SDS011;40902;45.116;21.296;2023-12-20T02:44:26;10.32;;;6.00;;
55007;SDS011;40902;45.116;21.296;2023-12-20T02:46:52;12.27;;;7.68;;
55007;SDS011;40902;45.116;21.296;2023-12-20T02:49:17;10.52;;;6.82;;
55007;SDS011;40902;45.116;21.296;2023-12-20T02:51:43;8.82;;;6.32;;
55007;SDS011;40902;45.116;21.296;2023-12-20T02:54:09;9.82;;;6.40;;
55007;SDS011;40902;45.116;21.296;2023-12-20T02:56:35;11.40;;;7.18;;
55007;SDS011;40902;45.116;21.296;2023-12-20T02:59:00;9.77;;;6.45;;
55007;SDS011;40902;45.116;21.296;2023-12-20T03:01:27;10.95;;;7.03;;
55007;SDS011;40902;45.116;21.296;2023-12-20T03:03:54;9.05;;;6.60;;
55007;SDS011;40902;45.116;21.296;2023-12-20T03:06:20;11.75;;;7.63;;
55007;SDS011;40902;45.116;21.296;2023-12-20T03:08:45;11.88;;;7.53;;
55007;SDS011;40902;45.116;21.296;2023-12-20T03:11:12;10.02;;;6.68;;
55007;SDS011;40902;45.116;21.296;2023-12-20T03:13:37;11.82;;;7.85;;
55007;SDS011;40902;45.116;21.296;2023-12-20T03:16:09;12.38;;;7.63;;
55007;SDS011;40902;45.116;21.296;2023-12-20T03:18:36;11.07;;;7.00;;
55007;SDS011;40902;45.116;21.296;2023-12-20T03:21:02;9.95;;;6.97;;
55007;SDS011;40902;45.116;21.296;2023-12-20T03:23:29;10.18;;;6.57;;
55007;SDS011;40902;45.116;21.296;2023-12-20T03:25:55;10.65;;;6.85;;
55007;SDS011;40902;45.116;21.296;2023-12-20T03:28:22;9.60;;;6.22;;
55007;SDS011;40902;45.116;21.296;2023-12-20T03:30:48;11.35;;;7.60;;
55007;SDS011;40902;45.116;21.296;2023-12-20T03:33:14;9.65;;;6.95;;
55007;SDS011;40902;45.116;21.296;2023-12-20T03:35:40;10.18;;;7.25;;
55007;SDS011;40902;45.116;21.296;2023-12-20T03:38:06;15.68;;;8.93;;
55007;SDS011;40902;45.116;21.296;2023-12-20T03:40:32;10.38;;;6.78;;
55007;SDS011;40902;45.116;21.296;2023-12-20T03:42:58;13.82;;;8.15;;
55007;SDS011;40902;45.116;21.296;2023-12-20T03:45:24;13.32;;;7.97;;
55007;SDS011;40902;45.116;21.296;2023-12-20T03:47:50;11.75;;;7.22;;
55007;SDS011;40902;45.116;21.296;2023-12-20T03:50:20;9.75;;;7.03;;
55007;SDS011;40902;45.116;21.296;2023-12-20T03:52:47;10.20;;;6.43;;
55007;SDS011;40902;45.116;21.296;2023-12-20T03:55:13;10.18;;;6.25;;
55007;SDS011;40902;45.116;21.296;2023-12-20T03:57:38;11.57;;;7.18;;
55007;SDS011;40902;45.116;21.296;2023-12-20T04:00:05;11.80;;;6.78;;
55007;SDS011;40902;45.116;21.296;2023-12-20T04:02:35;11.32;;;6.93;;
55007;SDS011;40902;45.116;21.296;2023-12-20T04:05:01;12.27;;;6.20;;
55007;SDS011;40902;45.116;21.296;2023-12-20T04:07:27;10.95;;;6.30;;
55007;SDS011;40902;45.116;21.296;2023-12-20T04:09:53;11.52;;;6.35;;
55007;SDS011;40902;45.116;21.296;2023-12-20T04:12:19;12.85;;;7.47;;
55007;SDS011;40902;45.116;21.296;2023-12-20T04:14:44;13.27;;;8.52;;
55007;SDS011;40902;45.116;21.296;2023-12-20T04:17:10;15.45;;;10.23;;
55007;SDS011;40902;45.116;21.296;2023-12-20T04:19:36;18.00;;;10.88;;
55007;SDS011;40902;45.116;21.296;2023-12-20T04:22:01;19.85;;;11.90;;
55007;SDS011;40902;45.116;21.296;2023-12-20T04:24:27;21.05;;;12.80;;
55007;SDS011;40902;45.116;21.296;2023-12-20T04:26:53;20.98;;;12.70;;
55007;SDS011;40902;45.116;21.296;2023-12-20T04:29:19;21.70;;;12.98;;
55007;SDS011;40902;45.116;21.296;2023-12-20T04:31:45;19.83;;;12.05;;
55007;SDS011;40902;45.116;21.296;2023-12-20T04:34:10;21.15;;;13.02;;
55007;SDS011;40902;45.116;21.296;2023-12-20T04:36:36;18.00;;;12.48;;
55007;SDS011;40902;45.116;21.296;2023-12-20T04:39:02;20.27;;;12.73;;
55007;SDS011;40902;45.116;21.296;2023-12-20T04:41:28;18.65;;;12.30;;
55007;SDS011;40902;45.116;21.296;2023-12-20T04:43:53;20.08;;;12.70;;
55007;SDS011;40902;45.116;21.296;2023-12-20T04:46:19;20.35;;;11.88;;
55007;SDS011;40902;45.116;21.296;2023-12-20T04:48:45;20.42;;;13.98;;
55007;SDS011;40902;45.116;21.296;2023-12-20T04:51:11;22.55;;;13.63;;
55007;SDS011;40902;45.116;21.296;2023-12-20T04:53:36;20.30;;;13.15;;
55007;SDS011;40902;45.116;21.296;2023-12-20T04:56:02;19.92;;;13.10;;
55007;SDS011;40902;45.116;21.296;2023-12-20T04:58:28;20.13;;;13.60;;
55007;SDS011;40902;45.116;21.296;2023-12-20T05:00:54;20.30;;;12.65;;
55007;SDS011;40902;45.116;21.296;2023-12-20T05:03:19;19.00;;;12.40;;
55007;SDS011;40902;45.116;21.296;2023-12-20T05:05:45;19.25;;;12.57;;
55007;SDS011;40902;45.116;21.296;2023-12-20T05:08:11;17.27;;;11.57;;
55007;SDS011;40902;45.116;21.296;2023-12-20T05:10:37;15.73;;;10.23;;
55007;SDS011;40902;45.116;21.296;2023-12-20T05:13:03;29.02;;;17.67;;
55007;SDS011;40902;45.116;21.296;2023-12-20T05:15:28;27.17;;;16.40;;
55007;SDS011;40902;45.116;21.296;2023-12-20T05:17:54;19.08;;;11.05;;
55007;SDS011;40902;45.116;21.296;2023-12-20T05:20:20;16.23;;;9.57;;
55007;SDS011;40902;45.116;21.296;2023-12-20T05:22:45;11.50;;;7.95;;
55007;SDS011;40902;45.116;21.296;2023-12-20T05:25:12;10.15;;;6.88;;
55007;SDS011;40902;45.116;21.296;2023-12-20T05:27:38;11.55;;;6.80;;
55007;SDS011;40902;45.116;21.296;2023-12-20T05:30:03;10.25;;;6.30;;
55007;SDS011;40902;45.116;21.296;2023-12-20T05:32:30;15.70;;;7.43;;
55007;SDS011;40902;45.116;21.296;2023-12-20T05:34:56;11.18;;;7.65;;
55007;SDS011;40902;45.116;21.296;2023-12-20T05:37:22;12.02;;;8.05;;
55007;SDS011;40902;45.116;21.296;2023-12-20T05:39:47;14.32;;;9.50;;
55007;SDS011;40902;45.116;21.296;2023-12-20T05:42:13;13.95;;;9.00;;
55007;SDS011;40902;45.116;21.296;2023-12-20T05:44:39;13.32;;;9.13;;
55007;SDS011;40902;45.116;21.296;2023-12-20T05:47:05;14.63;;;9.05;;
55007;SDS011;40902;45.116;21.296;2023-12-20T05:49:30;13.45;;;9.20;;
55007;SDS011;40902;45.116;21.296;2023-12-20T05:51:56;15.15;;;9.88;;
55007;SDS011;40902;45.116;21.296;2023-12-20T05:54:22;14.15;;;10.60;;
55007;SDS011;40902;45.116;21.296;2023-12-20T05:56:48;15.63;;;9.73;;
55007;SDS011;40902;45.116;21.296;2023-12-20T05:59:14;13.32;;;8.45;;
55007;SDS011;40902;45.116;21.296;2023-12-20T06:01:39;12.70;;;8.27;;
55007;SDS011;40902;45.116;21.296;2023-12-20T06:04:05;12.73;;;8.20;;
55007;SDS011;40902;45.116;21.296;2023-12-20T06:06:31;12.48;;;8.30;;
55007;SDS011;40902;45.116;21.296;2023-12-20T06:08:57;11.25;;;8.27;;
55007;SDS011;40902;45.116;21.296;2023-12-20T06:11:23;12.10;;;8.20;;
55007;SDS011;40902;45.116;21.296;2023-12-20T06:13:48;11.43;;;7.72;;
55007;SDS011;40902;45.116;21.296;2023-12-20T06:16:18;11.48;;;8.10;;
55007;SDS011;40902;45.116;21.296;2023-12-20T06:18:44;10.68;;;7.45;;
55007;SDS011;40902;45.116;21.296;2023-12-20T06:21:10;11.27;;;7.38;;
55007;SDS011;40902;45.116;21.296;2023-12-20T06:23:38;10.82;;;6.93;;
55007;SDS011;40902;45.116;21.296;2023-12-20T06:26:04;12.70;;;7.18;;
55007;SDS011;40902;45.116;21.296;2023-12-20T06:28:29;11.15;;;7.18;;
55007;SDS011;40902;45.116;21.296;2023-12-20T06:30:55;10.95;;;6.95;;
55007;SDS011;40902;45.116;21.296;2023-12-20T06:33:22;11.45;;;7.30;;
55007;SDS011;40902;45.116;21.296;2023-12-20T06:35:48;11.60;;;7.43;;
55007;SDS011;40902;45.116;21.296;2023-12-20T06:38:14;14.15;;;7.88;;
55007;SDS011;40902;45.116;21.296;2023-12-20T06:40:40;13.15;;;7.53;;
55007;SDS011;40902;45.116;21.296;2023-12-20T06:43:07;11.35;;;6.07;;
55007;SDS011;40902;45.116;21.296;2023-12-20T06:45:33;9.15;;;6.05;;
55007;SDS011;40902;45.116;21.296;2023-12-20T06:47:59;8.68;;;5.70;;
55007;SDS011;40902;45.116;21.296;2023-12-20T06:50:25;11.85;;;6.30;;
55007;SDS011;40902;45.116;21.296;2023-12-20T06:52:51;8.77;;;5.45;;
55007;SDS011;40902;45.116;21.296;2023-12-20T06:55:17;9.52;;;5.68;;
55007;SDS011;40902;45.116;21.296;2023-12-20T06:57:43;7.18;;;4.47;;
55007;SDS011;40902;45.116;21.296;2023-12-20T07:00:10;7.22;;;3.97;;
55007;SDS011;40902;45.116;21.296;2023-12-20T07:02:36;7.68;;;4.22;;
55007;SDS011;40902;45.116;21.296;2023-12-20T07:05:02;7.80;;;4.68;;
55007;SDS011;40902;45.116;21.296;2023-12-20T07:07:28;6.85;;;3.92;;
55007;SDS011;40902;45.116;21.296;2023-12-20T07:09:54;7.00;;;4.45;;
55007;SDS011;40902;45.116;21.296;2023-12-20T07:12:19;7.70;;;4.25;;
55007;SDS011;40902;45.116;21.296;2023-12-20T07:14:46;7.68;;;4.70;;
55007;SDS011;40902;45.116;21.296;2023-12-20T07:17:12;7.40;;;4.63;;
55007;SDS011;40902;45.116;21.296;2023-12-20T07:19:40;7.63;;;4.32;;
55007;SDS011;40902;45.116;21.296;2023-12-20T07:22:06;9.13;;;5.43;;
55007;SDS011;40902;45.116;21.296;2023-12-20T07:24:32;7.63;;;5.05;;
55007;SDS011;40902;45.116;21.296;2023-12-20T07:26:59;10.45;;;6.28;;
55007;SDS011;40902;45.116;21.296;2023-12-20T07:29:26;9.85;;;5.40;;
55007;SDS011;40902;45.116;21.296;2023-12-20T07:31:54;9.00;;;5.75;;
55007;SDS011;40902;45.116;21.296;2023-12-20T07:34:20;10.95;;;5.90;;
55007;SDS011;40902;45.116;21.296;2023-12-20T07:36:46;8.60;;;5.18;;
55007;SDS011;40902;45.116;21.296;2023-12-20T07:39:12;7.50;;;5.10;;
55007;SDS011;40902;45.116;21.296;2023-12-20T07:41:38;8.32;;;5.55;;
55007;SDS011;40902;45.116;21.296;2023-12-20T07:44:04;9.90;;;5.80;;
55007;SDS011;40902;45.116;21.296;2023-12-20T07:46:31;9.40;;;5.45;;
55007;SDS011;40902;45.116;21.296;2023-12-20T07:48:57;7.43;;;5.15;;
55007;SDS011;40902;45.116;21.296;2023-12-20T07:51:23;9.40;;;5.47;;
55007;SDS011;40902;45.116;21.296;2023-12-20T07:53:48;7.13;;;4.90;;
55007;SDS011;40902;45.116;21.296;2023-12-20T07:56:17;10.13;;;5.30;;
55007;SDS011;40902;45.116;21.296;2023-12-20T07:58:44;11.23;;;5.35;;
55007;SDS011;40902;45.116;21.296;2023-12-20T08:01:11;11.32;;;5.60;;
55007;SDS011;40902;45.116;21.296;2023-12-20T08:03:37;10.60;;;5.97;;
55007;SDS011;40902;45.116;21.296;2023-12-20T08:06:03;9.95;;;5.82;;
55007;SDS011;40902;45.116;21.296;2023-12-20T08:08:29;9.43;;;6.18;;
55007;SDS011;40902;45.116;21.296;2023-12-20T08:10:55;16.30;;;12.75;;
55007;SDS011;40902;45.116;21.296;2023-12-20T08:13:24;15.25;;;11.85;;
55007;SDS011;40902;45.116;21.296;2023-12-20T08:15:51;20.50;;;14.93;;
55007;SDS011;40902;45.116;21.296;2023-12-20T08:18:17;15.77;;;9.70;;
55007;SDS011;40902;45.116;21.296;2023-12-20T08:20:43;12.68;;;8.02;;
55007;SDS011;40902;45.116;21.296;2023-12-20T08:23:09;10.63;;;6.18;;
55007;SDS011;40902;45.116;21.296;2023-12-20T08:25:35;10.82;;;6.78;;
55007;SDS011;40902;45.116;21.296;2023-12-20T08:28:01;11.27;;;5.70;;
55007;SDS011;40902;45.116;21.296;2023-12-20T08:30:28;9.02;;;6.28;;
55007;SDS011;40902;45.116;21.296;2023-12-20T08:32:54;10.23;;;6.72;;
55007;SDS011;40902;45.116;21.296;2023-12-20T08:35:20;13.23;;;6.43;;
55007;SDS011;40902;45.116;21.296;2023-12-20T08:37:46;12.50;;;6.80;;
55007;SDS011;40902;45.116;21.296;2023-12-20T08:40:12;12.00;;;7.57;;
55007;SDS011;40902;45.116;21.296;2023-12-20T08:42:38;10.30;;;6.43;;
55007;SDS011;40902;45.116;21.296;2023-12-20T08:45:04;9.18;;;6.40;;
55007;SDS011;40902;45.116;21.296;2023-12-20T08:47:30;11.63;;;6.50;;
55007;SDS011;40902;45.116;21.296;2023-12-20T08:49:56;12.65;;;6.85;;
55007;SDS011;40902;45.116;21.296;2023-12-20T08:52:24;10.82;;;6.60;;
55007;SDS011;40902;45.116;21.296;2023-12-20T08:54:50;13.15;;;7.60;;
55007;SDS011;40902;45.116;21.296;2023-12-20T08:57:20;11.07;;;7.65;;
55007;SDS011;40902;45.116;21.296;2023-12-20T08:59:48;12.88;;;8.25;;
55007;SDS011;40902;45.116;21.296;2023-12-20T09:02:13;14.20;;;8.95;;
55007;SDS011;40902;45.116;21.296;2023-12-20T09:04:39;10.73;;;7.43;;
55007;SDS011;40902;45.116;21.296;2023-12-20T09:07:05;11.57;;;8.35;;
55007;SDS011;40902;45.116;21.296;2023-12-20T09:09:31;17.80;;;9.60;;
55007;SDS011;40902;45.116;21.296;2023-12-20T09:11:57;12.13;;;7.97;;
55007;SDS011;40902;45.116;21.296;2023-12-20T09:14:23;11.98;;;7.40;;
55007;SDS011;40902;45.116;21.296;2023-12-20T09:16:49;11.85;;;6.75;;
55007;SDS011;40902;45.116;21.296;2023-12-20T09:19:16;10.23;;;7.10;;
55007;SDS011;40902;45.116;21.296;2023-12-20T09:21:42;9.95;;;6.97;;
55007;SDS011;40902;45.116;21.296;2023-12-20T09:24:08;9.88;;;7.13;;
55007;SDS011;40902;45.116;21.296;2023-12-20T09:26:34;9.85;;;6.30;;
55007;SDS011;40902;45.116;21.296;2023-12-20T09:29:00;10.25;;;6.82;;
55007;SDS011;40902;45.116;21.296;2023-12-20T09:31:26;9.23;;;5.97;;
55007;SDS011;40902;45.116;21.296;2023-12-20T09:33:52;9.65;;;5.95;;
55007;SDS011;40902;45.116;21.296;2023-12-20T09:36:17;8.57;;;5.85;;
55007;SDS011;40902;45.116;21.296;2023-12-20T09:38:43;12.55;;;6.85;;
55007;SDS011;40902;45.116;21.296;2023-12-20T09:41:09;14.32;;;9.27;;
55007;SDS011;40902;45.116;21.296;2023-12-20T09:43:37;14.40;;;7.90;;
55007;SDS011;40902;45.116;21.296;2023-12-20T09:46:05;13.95;;;8.32;;
55007;SDS011;40902;45.116;21.296;2023-12-20T09:48:35;13.80;;;8.45;;
55007;SDS011;40902;45.116;21.296;2023-12-20T09:51:02;10.95;;;6.78;;
55007;SDS011;40902;45.116;21.296;2023-12-20T09:53:27;10.60;;;7.20;;
55007;SDS011;40902;45.116;21.296;2023-12-20T09:55:56;11.90;;;7.93;;
55007;SDS011;40902;45.116;21.296;2023-12-20T09:58:26;13.50;;;8.27;;
55007;SDS011;40902;45.116;21.296;2023-12-20T10:00:52;14.20;;;8.82;;
55007;SDS011;40902;45.116;21.296;2023-12-20T10:03:19;13.30;;;8.98;;
55007;SDS011;40902;45.116;21.296;2023-12-20T10:05:52;13.93;;;9.98;;
55007;SDS011;40902;45.116;21.296;2023-12-20T10:08:21;12.82;;;9.27;;
55007;SDS011;40902;45.116;21.296;2023-12-20T10:10:47;11.48;;;7.20;;
55007;SDS011;40902;45.116;21.296;2023-12-20T10:13:13;12.18;;;7.60;;
55007;SDS011;40902;45.116;21.296;2023-12-20T10:15:40;11.35;;;7.30;;
55007;SDS011;40902;45.116;21.296;2023-12-20T10:18:06;10.63;;;7.28;;
55007;SDS011;40902;45.116;21.296;2023-12-20T10:20:33;12.18;;;7.10;;
55007;SDS011;40902;45.116;21.296;2023-12-20T10:22:59;12.25;;;7.75;;
55007;SDS011;40902;45.116;21.296;2023-12-20T10:25:26;12.43;;;8.45;;
55007;SDS011;40902;45.116;21.296;2023-12-20T10:28:14;11.13;;;7.18;;
55007;SDS011;40902;45.116;21.296;2023-12-20T10:30:46;11.20;;;7.17;;
55007;SDS011;40902;45.116;21.296;2023-12-20T10:33:12;11.15;;;6.78;;
55007;SDS011;40902;45.116;21.296;2023-12-20T10:35:38;11.10;;;7.30;;
55007;SDS011;40902;45.116;21.296;2023-12-20T10:38:05;11.88;;;7.60;;
55007;SDS011;40902;45.116;21.296;2023-12-20T10:40:34;13.65;;;7.35;;
55007;SDS011;40902;45.116;21.296;2023-12-20T10:43:03;12.90;;;7.47;;
55007;SDS011;40902;45.116;21.296;2023-12-20T10:45:30;11.77;;;8.77;;
55007;SDS011;40902;45.116;21.296;2023-12-20T10:47:56;12.70;;;7.93;;
55007;SDS011;40902;45.116;21.296;2023-12-20T10:50:27;12.35;;;8.30;;
55007;SDS011;40902;45.116;21.296;2023-12-20T10:52:56;11.98;;;7.75;;
55007;SDS011;40902;45.116;21.296;2023-12-20T10:55:23;14.57;;;8.15;;
55007;SDS011;40902;45.116;21.296;2023-12-20T10:57:52;13.40;;;7.53;;
55007;SDS011;40902;45.116;21.296;2023-12-20T11:00:20;9.95;;;7.00;;
55007;SDS011;40902;45.116;21.296;2023-12-20T11:02:49;9.52;;;6.88;;
55007;SDS011;40902;45.116;21.296;2023-12-20T11:05:28;12.05;;;8.38;;
55007;SDS011;40902;45.116;21.296;2023-12-20T11:10:36;14.68;;;8.35;;
55007;SDS011;40902;45.116;21.296;2023-12-20T11:13:26;14.77;;;9.37;;
55007;SDS011;40902;45.116;21.296;2023-12-20T11:15:57;16.00;;;9.95;;
55007;SDS011;40902;45.116;21.296;2023-12-20T11:18:30;14.55;;;9.13;;
55007;SDS011;40902;45.116;21.296;2023-12-20T11:21:00;14.88;;;9.50;;
55007;SDS011;40902;45.116;21.296;2023-12-20T11:23:27;13.75;;;9.57;;
55007;SDS011;40902;45.116;21.296;2023-12-20T11:25:55;15.80;;;11.85;;
55007;SDS011;40902;45.116;21.296;2023-12-20T11:28:25;14.13;;;10.35;;
55007;SDS011;40902;45.116;21.296;2023-12-20T11:30:52;15.50;;;10.35;;
55007;SDS011;40902;45.116;21.296;2023-12-20T11:33:23;14.20;;;10.45;;
55007;SDS011;40902;45.116;21.296;2023-12-20T11:35:51;14.55;;;10.68;;
55007;SDS011;40902;45.116;21.296;2023-12-20T11:38:20;15.48;;;9.80;;
55007;SDS011;40902;45.116;21.296;2023-12-20T11:40:48;19.05;;;10.32;;
55007;SDS011;40902;45.116;21.296;2023-12-20T11:43:29;16.55;;;11.15;;
55007;SDS011;40902;45.116;21.296;2023-12-20T11:46:05;18.17;;;12.20;;
55007;SDS011;40902;45.116;21.296;2023-12-20T11:48:32;16.27;;;11.20;;
55007;SDS011;40902;45.116;21.296;2023-12-20T11:50:59;20.42;;;12.18;;
55007;SDS011;40902;45.116;21.296;2023-12-20T11:53:25;17.98;;;11.77;;
55007;SDS011;40902;45.116;21.296;2023-12-20T11:55:51;16.17;;;11.55;;
55007;SDS011;40902;45.116;21.296;2023-12-20T11:58:18;17.73;;;11.85;;
55007;SDS011;40902;45.116;21.296;2023-12-20T12:00:44;17.90;;;12.35;;
55007;SDS011;40902;45.116;21.296;2023-12-20T12:03:10;17.13;;;11.63;;
55007;SDS011;40902;45.116;21.296;2023-12-20T12:05:39;19.15;;;12.50;;
55007;SDS011;40902;45.116;21.296;2023-12-20T12:08:05;19.55;;;13.32;;
55007;SDS011;40902;45.116;21.296;2023-12-20T12:10:31;20.98;;;14.00;;
55007;SDS011;40902;45.116;21.296;2023-12-20T12:12:57;17.98;;;12.95;;
55007;SDS011;40902;45.116;21.296;2023-12-20T12:15:22;24.05;;;13.30;;
55007;SDS011;40902;45.116;21.296;2023-12-20T12:17:54;21.02;;;13.85;;
55007;SDS011;40902;45.116;21.296;2023-12-20T12:20:22;22.95;;;14.75;;
55007;SDS011;40902;45.116;21.296;2023-12-20T12:23:01;23.95;;;15.45;;
55007;SDS011;40902;45.116;21.296;2023-12-20T12:25:29;23.45;;;14.68;;
55007;SDS011;40902;45.116;21.296;2023-12-20T12:27:59;22.40;;;14.55;;
55007;SDS011;40902;45.116;21.296;2023-12-20T12:30:25;24.55;;;14.63;;
55007;SDS011;40902;45.116;21.296;2023-12-20T12:32:52;26.02;;;18.33;;
55007;SDS011;40902;45.116;21.296;2023-12-20T12:35:18;19.55;;;14.50;;
55007;SDS011;40902;45.116;21.296;2023-12-20T12:37:44;21.67;;;15.02;;
55007;SDS011;40902;45.116;21.296;2023-12-20T12:40:11;21.95;;;15.82;;
55007;SDS011;40902;45.116;21.296;2023-12-20T12:42:38;26.15;;;17.80;;
55007;SDS011;40902;45.116;21.296;2023-12-20T12:45:04;28.30;;;16.80;;
55007;SDS011;40902;45.116;21.296;2023-12-20T12:47:31;24.65;;;16.65;;
55007;SDS011;40902;45.116;21.296;2023-12-20T12:49:57;29.25;;;19.40;;
55007;SDS011;40902;45.116;21.296;2023-12-20T12:52:23;36.53;;;19.77;;
55007;SDS011;40902;45.116;21.296;2023-12-20T12:54:49;28.77;;;19.23;;
55007;SDS011;40902;45.116;21.296;2023-12-20T12:57:14;28.33;;;19.85;;
55007;SDS011;40902;45.116;21.296;2023-12-20T12:59:41;31.02;;;20.05;;
55007;SDS011;40902;45.116;21.296;2023-12-20T13:02:09;34.58;;;21.20;;
55007;SDS011;40902;45.116;21.296;2023-12-20T13:04:34;30.88;;;22.05;;
55007;SDS011;40902;45.116;21.296;2023-12-20T13:07:00;33.58;;;23.30;;
55007;SDS011;40902;45.116;21.296;2023-12-20T13:09:26;33.25;;;22.95;;
55007;SDS011;40902;45.116;21.296;2023-12-20T13:11:52;35.85;;;24.17;;
55007;SDS011;40902;45.116;21.296;2023-12-20T13:14:18;32.00;;;22.38;;
55007;SDS011;40902;45.116;21.296;2023-12-20T13:16:43;35.25;;;24.77;;
55007;SDS011;40902;45.116;21.296;2023-12-20T13:19:10;34.72;;;24.80;;
55007;SDS011;40902;45.116;21.296;2023-12-20T13:21:36;33.03;;;23.58;;
55007;SDS011;40902;45.116;21.296;2023-12-20T13:24:02;32.92;;;23.90;;
55007;SDS011;40902;45.116;21.296;2023-12-20T13:26:28;48.13;;;35.20;;
55007;SDS011;40902;45.116;21.296;2023-12-20T13:28:54;64.78;;;49.78;;
55007;SDS011;40902;45.116;21.296;2023-12-20T13:31:20;76.57;;;56.08;;
55007;SDS011;40902;45.116;21.296;2023-12-20T13:33:46;75.78;;;55.25;;
55007;SDS011;40902;45.116;21.296;2023-12-20T13:36:12;81.72;;;57.15;;
55007;SDS011;40902;45.116;21.296;2023-12-20T13:38:37;73.85;;;55.97;;
55007;SDS011;40902;45.116;21.296;2023-12-20T13:41:03;76.20;;;58.75;;
55007;SDS011;40902;45.116;21.296;2023-12-20T13:43:30;80.70;;;58.08;;
55007;SDS011;40902;45.116;21.296;2023-12-20T13:45:57;79.93;;;61.97;;
55007;SDS011;40902;45.116;21.296;2023-12-20T13:48:26;93.78;;;68.97;;
55007;SDS011;40902;45.116;21.296;2023-12-20T13:50:52;97.32;;;73.10;;
55007;SDS011;40902;45.116;21.296;2023-12-20T13:53:17;101.78;;;71.97;;
55007;SDS011;40902;45.116;21.296;2023-12-20T13:55:44;102.32;;;76.78;;
55007;SDS011;40902;45.116;21.296;2023-12-20T13:58:10;104.78;;;79.47;;
55007;SDS011;40902;45.116;21.296;2023-12-20T14:00:36;102.53;;;77.78;;
55007;SDS011;40902;45.116;21.296;2023-12-20T14:03:02;104.13;;;75.55;;
55007;SDS011;40902;45.116;21.296;2023-12-20T14:05:29;107.40;;;80.97;;
55007;SDS011;40902;45.116;21.296;2023-12-20T14:07:55;109.43;;;81.75;;
55007;SDS011;40902;45.116;21.296;2023-12-20T14:10:23;109.85;;;82.07;;
55007;SDS011;40902;45.116;21.296;2023-12-20T14:12:50;111.32;;;84.57;;
55007;SDS011;40902;45.116;21.296;2023-12-20T14:15:16;111.18;;;81.60;;
55007;SDS011;40902;45.116;21.296;2023-12-20T14:17:41;114.00;;;85.20;;